createdAt,value
2017-08-13T00:01:28.914Z,19.12
2017-08-13T00:03:58.230Z,19.04
2017-08-13T00:06:26.571Z,18.97
2017-08-13T00:08:55.711Z,19.04
2017-08-13T00:11:24.388Z,19.02
2017-08-13T00:13:52.756Z,18.88
2017-08-13T00:16:21.110Z,19.07
2017-08-13T00:18:49.834Z,19.19
2017-08-13T00:21:18.220Z,19.23
2017-08-13T00:23:46.574Z,19.15
2017-08-13T00:26:15.574Z,19.16
2017-08-13T00:28:43.950Z,19.04
2017-08-13T00:31:12.311Z,19.10
2017-08-13T00:33:41.201Z,19.04
2017-08-13T00:36:09.570Z,18.82
2017-08-13T00:38:38.700Z,18.82
2017-08-13T00:41:07.463Z,18.65
2017-08-13T00:43:35.807Z,18.78
2017-08-13T00:46:04.151Z,18.83
2017-08-13T00:48:33.318Z,18.81
2017-08-13T00:51:01.658Z,18.82
2017-08-13T00:53:30.032Z,18.78
2017-08-13T00:55:58.650Z,18.66
2017-08-13T00:58:27.776Z,18.70
2017-08-13T01:00:56.141Z,18.69
2017-08-13T01:03:24.854Z,18.63
2017-08-13T01:05:53.206Z,18.52
2017-08-13T01:08:22.335Z,18.43
2017-08-13T01:10:51.158Z,18.33
2017-08-13T01:13:19.523Z,18.24
2017-08-13T01:15:47.872Z,18.38
2017-08-13T01:18:16.777Z,18.36
2017-08-13T01:20:45.128Z,18.27
2017-08-13T01:23:13.461Z,18.28
2017-08-13T01:25:42.433Z,18.24
2017-08-13T01:28:10.791Z,18.36
2017-08-13T01:30:39.144Z,18.27
2017-08-13T01:33:08.091Z,18.18
2017-08-13T01:35:36.447Z,18.26
2017-08-13T01:38:04.797Z,18.01
2017-08-13T01:40:33.446Z,17.98
2017-08-13T01:43:01.800Z,18.02
2017-08-13T01:45:30.181Z,18.14
2017-08-13T01:47:58.849Z,18.20
2017-08-13T01:50:27.229Z,18.02
2017-08-13T01:52:55.573Z,17.87
2017-08-13T01:55:24.455Z,17.91
2017-08-13T01:57:52.806Z,17.87
2017-08-13T02:00:21.191Z,17.78
2017-08-13T02:02:49.803Z,17.66
2017-08-13T02:05:18.176Z,17.63
2017-08-13T02:07:46.514Z,17.54
2017-08-13T02:10:15.196Z,17.64
2017-08-13T02:12:43.561Z,17.67
2017-08-13T02:15:11.914Z,17.55
2017-08-13T02:17:40.698Z,17.40
2017-08-13T02:20:09.080Z,17.25
2017-08-13T02:22:38.203Z,17.23
2017-08-13T02:25:06.907Z,17.24
2017-08-13T02:27:35.304Z,17.15
2017-08-13T02:30:03.682Z,17.05
2017-08-13T02:32:32.702Z,17.23
2017-08-13T02:35:01.054Z,17.31
2017-08-13T02:37:29.435Z,17.10
2017-08-13T02:39:58.220Z,16.92
2017-08-13T02:42:26.588Z,16.90
2017-08-13T02:44:54.950Z,16.78
2017-08-13T02:47:23.769Z,16.86
2017-08-13T02:49:52.168Z,16.92
2017-08-13T02:52:20.520Z,17.08
2017-08-13T02:54:49.373Z,17.09
2017-08-13T02:57:17.743Z,16.94
2017-08-13T02:59:46.844Z,16.87
2017-08-13T03:02:16.469Z,16.91
2017-08-13T03:04:44.850Z,17.00
2017-08-13T03:07:13.250Z,17.05
2017-08-13T03:09:41.922Z,17.06
2017-08-13T03:12:10.261Z,17.17
2017-08-13T03:14:39.373Z,16.98
2017-08-13T03:17:08.201Z,16.94
2017-08-13T03:19:36.541Z,16.81
2017-08-13T03:22:04.918Z,16.89
2017-08-13T03:24:33.693Z,16.77
2017-08-13T03:27:02.074Z,16.86
2017-08-13T03:29:30.430Z,16.64
2017-08-13T03:31:59.108Z,16.89
2017-08-13T03:34:27.500Z,16.94
2017-08-13T03:36:55.852Z,16.90
2017-08-13T03:39:24.722Z,17.01
2017-08-13T03:41:53.072Z,17.04
2017-08-13T03:44:22.218Z,17.11
2017-08-13T03:46:50.916Z,16.99
2017-08-13T03:49:19.277Z,17.06
2017-08-13T03:51:47.655Z,17.12
2017-08-13T03:54:16.379Z,17.11
2017-08-13T03:56:44.733Z,17.12
2017-08-13T03:59:13.069Z,17.23
2017-08-13T04:01:41.854Z,17.14
2017-08-13T04:04:10.204Z,17.08
2017-08-13T04:06:38.556Z,17.12
2017-08-13T04:09:07.226Z,17.18
2017-08-13T04:11:35.615Z,17.08
2017-08-13T04:14:03.980Z,17.43
2017-08-13T04:16:32.640Z,17.49
2017-08-13T04:19:00.990Z,17.45
2017-08-13T04:21:29.365Z,17.56
2017-08-13T04:23:58.213Z,17.65
2017-08-13T04:26:26.566Z,17.51
2017-08-13T04:28:55.694Z,17.54
2017-08-13T04:31:24.484Z,17.67
2017-08-13T04:33:52.826Z,17.79
2017-08-13T04:36:21.169Z,17.87
2017-08-13T04:38:49.924Z,17.84
2017-08-13T04:41:18.290Z,17.95
2017-08-13T04:43:46.670Z,17.91
2017-08-13T04:46:15.304Z,18.04
2017-08-13T04:48:43.674Z,18.10
2017-08-13T04:51:12.067Z,17.93
2017-08-13T04:53:40.874Z,17.68
2017-08-13T04:56:09.246Z,17.49
2017-08-13T04:58:37.573Z,17.54
2017-08-13T05:01:06.278Z,17.63
2017-08-13T05:03:34.636Z,17.55
2017-08-13T05:06:02.997Z,17.40
2017-08-13T05:08:31.907Z,17.51
2017-08-13T05:11:00.264Z,17.86
2017-08-13T05:13:29.391Z,17.78
2017-08-13T05:15:58.376Z,17.63
2017-08-13T05:18:26.737Z,17.79
2017-08-13T05:20:55.878Z,17.93
2017-08-13T05:23:24.514Z,17.93
2017-08-13T05:25:53.651Z,17.97
2017-08-13T05:28:22.011Z,17.92
2017-08-13T05:30:50.869Z,18.00
2017-08-13T05:33:19.228Z,18.21
2017-08-13T05:35:47.592Z,18.11
2017-08-13T05:38:16.358Z,18.34
2017-08-13T05:40:44.740Z,18.18
2017-08-13T05:43:13.104Z,18.42
2017-08-13T05:45:41.824Z,18.62
2017-08-13T05:48:10.173Z,18.75
2017-08-13T05:50:38.533Z,18.86
2017-08-13T05:53:07.486Z,19.00
2017-08-13T05:55:35.852Z,19.05
2017-08-13T05:58:04.209Z,19.16
2017-08-13T06:00:33.305Z,19.13
2017-08-13T06:03:01.650Z,18.96
2017-08-13T06:05:30.769Z,18.69
2017-08-13T06:07:59.416Z,18.52
2017-08-13T06:10:27.790Z,18.93
2017-08-13T06:12:56.189Z,19.14
2017-08-13T06:15:25.624Z,19.31
2017-08-13T06:17:54.003Z,19.65
2017-08-13T06:20:22.349Z,19.74
2017-08-13T06:22:51.118Z,19.62
2017-08-13T06:25:19.492Z,19.65
2017-08-13T06:27:47.850Z,20.03
2017-08-13T06:30:16.486Z,19.83
2017-08-13T06:32:44.868Z,19.68
2017-08-13T06:35:13.224Z,19.65
2017-08-13T06:37:41.904Z,20.07
2017-08-13T06:40:10.275Z,19.86
2017-08-13T06:42:38.629Z,19.56
2017-08-13T06:45:07.337Z,19.42
2017-08-13T06:47:35.679Z,19.15
2017-08-13T06:50:04.053Z,19.21
2017-08-13T06:52:32.742Z,18.88
2017-08-13T06:55:01.110Z,19.00
2017-08-13T06:57:29.473Z,19.00
2017-08-13T06:59:59.091Z,19.45
2017-08-13T07:02:27.467Z,19.65
2017-08-13T07:04:56.576Z,19.55
2017-08-13T07:07:26.149Z,20.24
2017-08-13T07:09:54.519Z,20.89
2017-08-13T07:12:22.879Z,20.86
2017-08-13T07:14:51.651Z,21.15
2017-08-13T07:17:20.002Z,21.33
2017-08-13T07:19:49.167Z,21.43
2017-08-13T07:22:18.146Z,21.90
2017-08-13T07:24:46.518Z,21.78
2017-08-13T07:27:14.911Z,21.59
2017-08-13T07:29:43.664Z,21.45
2017-08-13T07:32:12.103Z,21.14
2017-08-13T07:34:40.470Z,21.81
2017-08-13T07:37:09.746Z,22.09
2017-08-13T07:39:38.125Z,22.12
2017-08-13T07:42:06.499Z,21.86
2017-08-13T07:44:35.189Z,21.92
2017-08-13T07:47:03.605Z,21.93
2017-08-13T07:49:31.976Z,22.47
2017-08-13T07:52:00.875Z,22.52
2017-08-13T07:54:29.284Z,22.93
2017-08-13T07:56:57.681Z,23.41
2017-08-13T07:59:26.585Z,23.90
2017-08-13T08:01:54.982Z,23.91
2017-08-13T08:04:23.384Z,23.92
2017-08-13T08:06:52.324Z,23.92
2017-08-13T08:09:20.683Z,24.23
2017-08-13T08:11:49.024Z,24.13
2017-08-13T08:14:18.097Z,23.88
2017-08-13T08:16:46.459Z,23.43
2017-08-13T08:19:14.879Z,23.25
2017-08-13T08:21:43.653Z,22.84
2017-08-13T08:24:12.004Z,22.45
2017-08-13T08:26:40.502Z,21.65
2017-08-13T08:29:09.374Z,21.78
2017-08-13T08:31:37.734Z,22.03
2017-08-13T08:36:46.130Z,22.23
2017-08-13T08:39:14.536Z,22.84
2017-08-13T08:41:42.919Z,23.05
2017-08-13T08:44:11.596Z,23.36
2017-08-13T08:46:39.982Z,23.43
2017-08-13T08:49:08.407Z,24.19
2017-08-13T08:51:37.220Z,24.03
2017-08-13T08:54:05.571Z,24.41
2017-08-13T08:56:33.933Z,24.73
2017-08-13T08:59:02.785Z,24.81
2017-08-13T09:01:31.191Z,24.65
2017-08-13T09:03:59.593Z,24.66
2017-08-13T09:06:28.323Z,24.67
2017-08-13T09:08:56.676Z,25.38
2017-08-13T09:11:25.022Z,25.22
2017-08-13T09:13:53.922Z,25.36
2017-08-13T09:16:22.287Z,25.59
2017-08-13T09:18:51.419Z,26.02
2017-08-13T09:21:20.437Z,26.22
2017-08-13T09:23:48.792Z,25.83
2017-08-13T09:26:17.140Z,24.92
2017-08-13T09:28:46.039Z,24.84
2017-08-13T09:31:14.375Z,24.57
2017-08-13T09:33:42.740Z,24.81
2017-08-13T09:36:11.393Z,24.84
2017-08-13T09:38:39.787Z,25.23
2017-08-13T09:41:08.138Z,25.36
2017-08-13T09:43:37.135Z,25.38
2017-08-13T09:46:05.519Z,24.86
2017-08-13T09:48:33.898Z,24.69
2017-08-13T09:51:02.806Z,25.24
2017-08-13T09:53:31.167Z,25.04
2017-08-13T09:55:59.525Z,25.84
2017-08-13T09:58:28.190Z,26.40
2017-08-13T10:00:56.555Z,26.72
2017-08-13T10:03:24.968Z,26.53
2017-08-13T10:05:54.051Z,26.32
2017-08-13T10:08:22.444Z,26.15
2017-08-13T10:10:51.586Z,25.93
2017-08-13T10:13:20.357Z,26.10
2017-08-13T10:15:48.730Z,26.38
2017-08-13T10:18:17.129Z,26.21
2017-08-13T10:20:46.211Z,26.10
2017-08-13T10:23:14.584Z,25.69
2017-08-13T10:25:42.944Z,25.76
2017-08-13T10:28:11.858Z,26.37
2017-08-13T10:30:40.214Z,26.54
2017-08-13T10:33:09.364Z,27.02
2017-08-13T10:35:38.026Z,27.40
2017-08-13T10:38:06.400Z,27.66
2017-08-13T10:40:34.822Z,27.70
2017-08-13T10:43:03.559Z,28.03
2017-08-13T10:45:31.919Z,27.41
2017-08-13T10:48:00.278Z,27.81
2017-08-13T10:50:29.207Z,28.24
2017-08-13T10:52:57.562Z,27.95
2017-08-13T10:55:25.924Z,27.98
2017-08-13T10:57:54.698Z,28.00
2017-08-13T11:00:23.024Z,27.90
2017-08-13T11:02:51.399Z,27.58
2017-08-13T11:05:20.079Z,27.75
2017-08-13T11:07:48.427Z,27.11
2017-08-13T11:10:16.770Z,26.74
2017-08-13T11:12:45.491Z,26.87
2017-08-13T11:15:13.849Z,27.35
2017-08-13T11:17:42.233Z,27.90
2017-08-13T11:20:10.999Z,27.33
2017-08-13T11:22:39.368Z,27.53
2017-08-13T11:25:07.718Z,27.70
2017-08-13T11:27:36.429Z,27.54
2017-08-13T11:30:04.792Z,27.55
2017-08-13T11:32:33.918Z,27.10
2017-08-13T11:35:02.698Z,27.19
2017-08-13T11:37:31.083Z,27.09
2017-08-13T11:39:59.457Z,27.16
2017-08-13T11:42:28.104Z,27.57
2017-08-13T11:44:56.451Z,27.71
2017-08-13T11:47:24.815Z,27.91
2017-08-13T11:49:53.604Z,28.29
2017-08-13T11:52:21.974Z,27.51
2017-08-13T11:54:50.352Z,27.93
2017-08-13T11:57:19.060Z,27.59
2017-08-13T11:59:47.422Z,27.22
2017-08-13T12:02:15.816Z,27.11
2017-08-13T12:04:44.465Z,27.51
2017-08-13T12:07:12.983Z,27.37
2017-08-13T12:09:41.455Z,26.79
2017-08-13T12:12:10.375Z,26.93
2017-08-13T12:14:38.722Z,26.71
2017-08-13T12:17:07.095Z,26.44
2017-08-13T12:19:35.996Z,26.12
2017-08-13T12:22:04.449Z,26.69
2017-08-13T12:24:32.850Z,26.87
2017-08-13T12:27:01.661Z,26.84
2017-08-13T12:29:30.040Z,27.21
2017-08-13T12:31:58.460Z,27.64
2017-08-13T12:34:27.160Z,27.23
2017-08-13T12:36:56.288Z,27.40
2017-08-13T12:39:24.646Z,27.44
2017-08-13T12:41:53.564Z,27.72
2017-08-13T12:44:21.932Z,27.89
2017-08-13T12:46:50.322Z,28.27
2017-08-13T12:49:19.111Z,28.11
2017-08-13T12:51:47.512Z,28.30
2017-08-13T12:54:15.894Z,28.61
2017-08-13T12:56:44.527Z,28.51
2017-08-13T12:59:13.669Z,28.50
2017-08-13T13:01:42.047Z,28.92
2017-08-13T13:04:10.928Z,29.28
2017-08-13T13:06:39.283Z,28.55
2017-08-13T13:09:07.662Z,28.15
2017-08-13T13:11:36.554Z,27.94
2017-08-13T13:14:05.003Z,27.46
2017-08-13T13:16:33.377Z,27.09
2017-08-13T13:19:02.003Z,27.27
2017-08-13T13:21:30.346Z,27.26
2017-08-13T13:23:58.692Z,27.37
2017-08-13T13:26:27.492Z,27.71
2017-08-13T13:28:55.844Z,27.68
2017-08-13T13:31:24.208Z,27.46
2017-08-13T13:33:52.820Z,27.39
2017-08-13T13:36:21.240Z,27.33
2017-08-13T13:38:49.618Z,27.39
2017-08-13T13:41:18.271Z,27.30
2017-08-13T13:43:46.621Z,27.03
2017-08-13T13:46:14.983Z,26.86
2017-08-13T13:48:44.043Z,26.89
2017-08-13T13:51:12.397Z,27.08
2017-08-13T13:53:40.754Z,26.92
2017-08-13T13:56:09.381Z,26.58
2017-08-13T13:58:37.761Z,26.73
2017-08-13T14:01:06.100Z,26.60
2017-08-13T14:03:34.878Z,26.60
2017-08-13T14:06:03.258Z,26.50
2017-08-13T14:08:31.625Z,26.45
2017-08-13T14:11:00.540Z,26.26
2017-08-13T14:13:28.902Z,26.21
2017-08-13T14:15:57.266Z,26.31
2017-08-13T14:18:26.075Z,26.35
2017-08-13T14:20:54.449Z,26.18
2017-08-13T14:23:22.827Z,26.23
2017-08-13T14:25:51.605Z,26.17
2017-08-13T14:28:19.968Z,26.13
2017-08-13T14:30:48.350Z,26.10
2017-08-13T14:33:17.152Z,26.17
2017-08-13T14:35:46.273Z,26.30
2017-08-13T14:38:14.696Z,25.72
2017-08-13T14:40:43.386Z,26.01
2017-08-13T14:43:11.770Z,26.10
2017-08-13T14:45:40.148Z,25.76
2017-08-13T14:48:09.203Z,25.59
2017-08-13T14:50:37.620Z,25.71
2017-08-13T14:53:05.967Z,25.54
2017-08-13T14:55:34.748Z,25.18
2017-08-13T14:58:03.158Z,25.03
2017-08-13T15:00:31.507Z,25.03
2017-08-13T15:03:00.184Z,24.88
2017-08-13T15:05:28.547Z,24.75
2017-08-13T15:07:56.915Z,24.82
2017-08-13T15:10:25.584Z,24.81
2017-08-13T15:12:53.941Z,24.83
2017-08-13T15:15:22.307Z,24.58
2017-08-13T15:17:51.142Z,24.50
2017-08-13T15:20:19.500Z,24.56
2017-08-13T15:22:47.865Z,24.51
2017-08-13T15:25:16.627Z,24.60
2017-08-13T15:27:44.974Z,24.63
2017-08-13T15:30:13.350Z,24.66
2017-08-13T15:32:42.042Z,24.80
2017-08-13T15:35:10.429Z,24.98
2017-08-13T15:37:38.801Z,25.12
2017-08-13T15:40:07.924Z,25.30
2017-08-13T15:42:36.250Z,25.21
2017-08-13T15:45:04.604Z,25.52
2017-08-13T15:47:33.412Z,25.69
2017-08-13T15:50:02.103Z,25.63
2017-08-13T15:52:30.486Z,25.69
2017-08-13T15:54:59.241Z,25.93
2017-08-13T15:57:27.618Z,25.99
2017-08-13T15:59:56.011Z,25.95
2017-08-13T16:02:24.740Z,25.91
2017-08-13T16:04:53.952Z,25.82
2017-08-13T16:07:22.331Z,25.42
2017-08-13T16:09:51.802Z,25.36
2017-08-13T16:12:20.156Z,25.02
2017-08-13T16:14:48.536Z,25.22
2017-08-13T16:17:17.230Z,25.39
2017-08-13T16:19:45.577Z,25.62
2017-08-13T16:22:13.956Z,25.57
2017-08-13T16:24:42.826Z,25.55
2017-08-13T16:27:11.186Z,25.38
2017-08-13T16:29:39.520Z,25.44
2017-08-13T16:32:08.308Z,25.40
2017-08-13T16:34:36.673Z,24.90
2017-08-13T16:37:05.024Z,24.94
2017-08-13T16:39:33.912Z,24.70
2017-08-13T16:42:02.248Z,24.63
2017-08-13T16:44:30.590Z,24.57
2017-08-13T16:46:59.301Z,24.60
2017-08-13T16:49:27.674Z,24.38
2017-08-13T16:51:56.037Z,24.25
2017-08-13T16:54:24.704Z,24.29
2017-08-13T16:56:53.111Z,24.23
2017-08-13T16:59:21.473Z,23.98
2017-08-13T17:01:51.087Z,24.04
2017-08-13T17:04:19.460Z,23.99
2017-08-13T17:06:58.217Z,24.26
2017-08-13T17:09:26.598Z,24.24
2017-08-13T17:11:54.983Z,24.15
2017-08-13T17:14:23.631Z,24.02
2017-08-13T17:16:51.976Z,23.75
2017-08-13T17:19:20.358Z,23.82
2017-08-13T17:21:49.029Z,23.80
2017-08-13T17:24:17.383Z,23.75
2017-08-13T17:26:45.759Z,23.76
2017-08-13T17:29:14.583Z,23.74
2017-08-13T17:31:42.931Z,23.73
2017-08-13T17:34:11.276Z,23.72
2017-08-13T17:36:39.921Z,23.72
2017-08-13T17:39:08.293Z,23.62
2017-08-13T17:41:36.647Z,23.23
2017-08-13T17:44:05.307Z,23.29
2017-08-13T17:46:33.660Z,23.07
2017-08-13T17:49:02.020Z,23.19
2017-08-13T17:51:30.874Z,23.29
2017-08-13T17:53:59.229Z,23.31
2017-08-13T17:56:27.599Z,23.46
2017-08-13T17:58:57.257Z,23.53
2017-08-13T18:01:25.651Z,23.42
2017-08-13T18:03:54.039Z,23.32
2017-08-13T18:06:22.676Z,23.33
2017-08-13T18:08:51.015Z,23.19
2017-08-13T18:11:19.389Z,23.29
2017-08-13T18:13:48.346Z,22.65
2017-08-13T18:16:16.709Z,22.78
2017-08-13T18:18:45.064Z,22.64
2017-08-13T18:21:13.733Z,22.67
2017-08-13T18:23:42.102Z,22.52
2017-08-13T18:26:10.449Z,22.39
2017-08-13T18:28:39.253Z,22.47
2017-08-13T18:31:07.620Z,22.42
2017-08-13T18:33:36.001Z,22.45
2017-08-13T18:36:04.897Z,22.38
2017-08-13T18:38:33.273Z,22.17
2017-08-13T18:41:01.652Z,21.96
2017-08-13T18:43:30.306Z,21.69
2017-08-13T18:45:58.683Z,21.57
2017-08-13T18:48:27.061Z,21.57
2017-08-13T18:50:55.787Z,21.53
2017-08-13T18:53:24.142Z,21.49
2017-08-13T18:55:52.504Z,21.59
2017-08-13T18:58:21.353Z,21.54
2017-08-13T19:00:49.718Z,21.43
2017-08-13T19:03:18.087Z,21.45
2017-08-13T19:05:46.856Z,21.38
2017-08-13T19:08:15.266Z,21.31
2017-08-13T19:10:43.658Z,21.24
2017-08-13T19:13:12.531Z,21.28
2017-08-13T19:15:40.941Z,21.17
2017-08-13T19:18:09.319Z,21.18
2017-08-13T19:20:38.058Z,21.24
2017-08-13T19:23:06.412Z,21.26
2017-08-13T19:25:34.757Z,21.16
2017-08-13T19:28:03.602Z,21.08
2017-08-13T19:30:32.000Z,21.03
2017-08-13T19:33:00.387Z,20.74
2017-08-13T19:35:29.099Z,20.73
2017-08-13T19:37:57.434Z,20.69
2017-08-13T19:40:25.799Z,20.68
2017-08-13T19:42:54.625Z,20.76
2017-08-13T19:45:22.991Z,20.67
2017-08-13T19:47:51.356Z,20.44
2017-08-13T19:50:20.140Z,20.38
2017-08-13T19:52:48.631Z,20.47
2017-08-13T19:55:17.011Z,20.59
2017-08-13T19:57:45.795Z,20.57
2017-08-13T20:00:14.162Z,20.69
2017-08-13T20:02:42.512Z,20.54
2017-08-13T20:05:11.210Z,20.53
2017-08-13T20:07:39.639Z,20.67
2017-08-13T20:10:08.001Z,20.66
2017-08-13T20:12:36.710Z,20.60
2017-08-13T20:15:05.120Z,20.63
2017-08-13T20:17:33.493Z,20.45
2017-08-13T20:20:02.182Z,20.41
2017-08-13T20:22:30.564Z,20.47
2017-08-13T20:24:58.927Z,20.45
2017-08-13T20:27:27.695Z,20.42
2017-08-13T20:29:56.072Z,20.37
2017-08-13T20:32:24.443Z,20.36
2017-08-13T20:34:53.138Z,20.28
2017-08-13T20:37:21.501Z,20.21
2017-08-13T20:39:49.857Z,20.33
2017-08-13T20:42:19.496Z,20.23
2017-08-13T20:44:47.862Z,20.20
2017-08-13T20:47:16.208Z,20.12
2017-08-13T20:49:45.183Z,20.09
2017-08-13T20:52:13.554Z,20.06
2017-08-13T20:54:42.038Z,19.99
2017-08-13T20:57:10.800Z,19.97
2017-08-13T20:59:39.164Z,19.96
2017-08-13T21:02:07.510Z,19.96
2017-08-13T21:04:36.188Z,20.03
2017-08-13T21:07:04.539Z,19.86
2017-08-13T21:09:32.934Z,19.97
2017-08-13T21:12:01.810Z,19.90
2017-08-13T21:14:30.164Z,19.82
2017-08-13T21:16:58.541Z,19.81
2017-08-13T21:19:27.167Z,19.74
2017-08-13T21:21:55.511Z,19.62
2017-08-13T21:24:23.850Z,19.56
2017-08-13T21:26:52.540Z,19.52
2017-08-13T21:29:20.898Z,19.58
2017-08-13T21:31:49.253Z,19.44
2017-08-13T21:34:18.212Z,19.57
2017-08-13T21:36:46.571Z,19.50
2017-08-13T21:39:15.688Z,19.31
2017-08-13T21:41:44.328Z,19.38
2017-08-13T21:44:12.672Z,19.32
2017-08-13T21:46:41.063Z,19.26
2017-08-13T21:49:10.572Z,19.13
2017-08-13T21:51:38.926Z,19.23
2017-08-13T21:54:07.338Z,19.20
2017-08-13T21:56:36.208Z,19.11
2017-08-13T21:59:04.569Z,19.15
2017-08-13T22:01:32.913Z,19.01
2017-08-13T22:04:01.640Z,18.87
2017-08-13T22:06:30.014Z,18.98
2017-08-13T22:08:58.396Z,18.99
2017-08-13T22:11:27.291Z,18.97
2017-08-13T22:13:55.688Z,18.84
2017-08-13T22:16:24.052Z,18.80
2017-08-13T22:18:52.809Z,18.75
2017-08-13T22:21:21.934Z,18.73
2017-08-13T22:23:50.346Z,18.79
2017-08-13T22:26:19.206Z,18.78
2017-08-13T22:28:47.556Z,18.70
2017-08-13T22:31:16.677Z,18.66
2017-08-13T22:33:45.458Z,18.64
2017-08-13T22:36:13.819Z,18.64
2017-08-13T22:38:42.962Z,18.59
2017-08-13T22:41:11.793Z,18.53
2017-08-13T22:43:40.166Z,18.47
2017-08-13T22:46:08.500Z,18.44
2017-08-13T22:48:37.366Z,18.52
2017-08-13T22:51:05.733Z,18.62
2017-08-13T22:53:34.842Z,18.52
2017-08-13T22:56:04.304Z,18.47
2017-08-13T22:58:32.657Z,18.42
2017-08-13T23:01:16.028Z,18.37
2017-08-13T23:03:44.409Z,18.21
2017-08-13T23:06:12.802Z,18.33
2017-08-13T23:08:42.211Z,18.34
2017-08-13T23:11:10.619Z,18.23
2017-08-13T23:13:38.972Z,18.12
2017-08-13T23:16:07.887Z,18.03
2017-08-13T23:18:36.260Z,18.04
2017-08-13T23:21:04.646Z,18.07
2017-08-13T23:23:33.826Z,17.96
2017-08-13T23:26:02.158Z,17.86
2017-08-13T23:28:30.489Z,17.78
2017-08-13T23:30:59.170Z,17.98
2017-08-13T23:33:27.536Z,17.96
2017-08-13T23:35:56.657Z,17.86
2017-08-13T23:38:25.367Z,17.85
2017-08-13T23:40:53.711Z,17.62
2017-08-13T23:43:22.064Z,17.31
2017-08-13T23:45:51.085Z,17.28
2017-08-13T23:48:19.447Z,17.25
2017-08-13T23:50:48.559Z,17.16
2017-08-13T23:53:17.348Z,16.99
2017-08-13T23:55:45.699Z,16.90
2017-08-13T23:58:14.819Z,16.89
